Time,TemperatureF,DewpointF,PressureIn,WindDirection,WindDirectionDegrees,WindSpeedMPH,WindSpeedGustMPH,Humidity,HourlyPrecipIn,Conditions,Clouds,dailyrainin,SoftwareType,DateUTC
2013-01-31 00:01:00,54.4,54.4,29.36,WNW,288,9.2,9.2,100,0.01,RA,,0.00,WeatherDisplay:10.37,2013-01-31 05:01:00,
2013-01-31 00:02:00,54.5,54.5,29.36,SW,223,9.1,9.1,100,0.01,RA,,0.00,WeatherDisplay:10.37,2013-01-31 05:02:00,
2013-01-31 00:04:00,54.8,54.8,29.35,SSW,209,23.0,23.0,100,0.01,RA,,0.00,WeatherDisplay:10.37,2013-01-31 05:04:00,
2013-01-31 00:09:00,55.0,55.0,29.34,SSE,162,11.5,11.5,100,0.01,RA,,0.00,WeatherDisplay:10.37,2013-01-31 05:09:00,
2013-01-31 00:14:00,55.1,55.1,29.34,South,191,10.4,10.4,100,0.01,OVC,,0.00,WeatherDisplay:10.37,2013-01-31 05:14:00,
2013-01-31 00:16:00,55.2,55.2,29.33,WSW,250,6.9,6.9,100,0.01,OVC,,0.00,WeatherDisplay:10.37,2013-01-31 05:16:00,
2013-01-31 00:21:00,55.4,55.4,29.33,SSE,168,18.4,18.4,100,0.01,-RA,,0.00,WeatherDisplay:10.37,2013-01-31 05:21:00,
2013-01-31 00:26:00,55.6,55.6,29.32,WSW,239,11.5,11.5,100,0.01,-RA,,0.00,WeatherDisplay:10.37,2013-01-31 05:26:00,
2013-01-31 00:31:00,55.8,55.8,29.32,SSW,205,13.8,13.8,100,0.01,-RA,,0.00,WeatherDisplay:10.37,2013-01-31 05:31:00,
2013-01-31 00:36:00,56.0,56.0,29.31,South,179,11.5,11.5,100,0.01,-RA,,0.00,WeatherDisplay:10.37,2013-01-31 05:36:00,
2013-01-31 00:41:00,55.9,55.9,29.31,SSW,192,13.8,13.8,100,0.01,-RA,,0.00,WeatherDisplay:10.37,2013-01-31 05:41:00,
2013-01-31 00:46:00,55.9,55.9,29.30,SW,223,18.4,18.4,100,0.01,OVC,,0.00,WeatherDisplay:10.37,2013-01-31 05:46:00,
2013-01-31 00:51:00,55.9,55.9,29.30,SSW,199,8.9,8.9,100,0.01,OVC,,0.00,WeatherDisplay:10.37,2013-01-31 05:51:00,
2013-01-31 00:56:00,55.9,55.9,29.29,SSE,152,11.5,11.5,100,0.01,OVC,,0.00,WeatherDisplay:10.37,2013-01-31 05:56:00,
2013-01-31 01:01:00,55.8,55.8,29.28,SSE,154,9.2,9.2,100,0.01,RA,,0.01,WeatherDisplay:10.37,2013-01-31 06:01:00,
2013-01-31 01:06:00,55.7,55.7,29.28,SSW,195,5.8,5.8,100,0.01,RA,,0.01,WeatherDisplay:10.37,2013-01-31 06:06:00,
2013-01-31 01:11:00,55.8,55.8,29.28,WSW,240,24.2,24.2,100,0.03,RA,,0.03,WeatherDisplay:10.37,2013-01-31 06:11:00,
2013-01-31 01:16:00,55.8,55.8,29.26,SE,144,10.4,10.4,100,0.06,-RA,,0.06,WeatherDisplay:10.37,2013-01-31 06:16:00,
2013-01-31 01:21:00,55.9,55.9,29.27,South,182,11.5,11.5,100,0.08,-RA,,0.08,WeatherDisplay:10.37,2013-01-31 06:21:00,
2013-01-31 01:26:00,55.9,55.9,29.25,South,182,18.4,18.4,100,0.09,-RA,,0.09,WeatherDisplay:10.37,2013-01-31 06:26:00,
2013-01-31 01:31:00,56.0,56.0,29.25,SW,217,15.0,15.0,100,0.10,-RA,,0.10,WeatherDisplay:10.37,2013-01-31 06:31:00,
2013-01-31 01:36:00,56.2,56.2,29.24,SSE,162,8.1,8.1,100,0.13,RA,,0.13,WeatherDisplay:10.37,2013-01-31 06:36:00,
2013-01-31 01:41:00,56.0,56.0,29.24,SSW,198,8.1,8.1,100,0.14,RA,,0.14,WeatherDisplay:10.37,2013-01-31 06:41:00,
2013-01-31 01:46:00,55.8,55.8,29.23,ESE,117,8.1,8.1,100,0.15,RA,,0.15,WeatherDisplay:10.37,2013-01-31 06:46:00,
2013-01-31 01:51:00,55.9,55.9,29.22,SSE,155,9.2,9.2,100,0.15,RA,,0.15,WeatherDisplay:10.37,2013-01-31 06:51:00,
2013-01-31 01:56:00,55.8,55.8,29.22,SSW,208,13.8,13.8,100,0.16,RA,,0.16,WeatherDisplay:10.37,2013-01-31 06:56:00,
2013-01-31 02:01:00,55.8,55.8,29.21,SSW,203,8.1,8.1,100,0.15,RA,,0.16,WeatherDisplay:10.37,2013-01-31 07:01:00,
2013-01-31 02:06:00,55.6,55.6,29.20,SSW,200,9.2,9.2,100,0.15,-RA,,0.16,WeatherDisplay:10.37,2013-01-31 07:06:00,
2013-01-31 02:11:00,55.6,55.6,29.19,SSW,193,18.4,18.4,100,0.13,-RA,,0.16,WeatherDisplay:10.37,2013-01-31 07:11:00,
2013-01-31 02:16:00,55.6,55.6,29.19,SW,216,17.3,17.3,100,0.11,-RA,,0.17,WeatherDisplay:10.37,2013-01-31 07:16:00,
2013-01-31 02:21:00,55.7,55.7,29.17,South,175,26.5,26.5,100,0.11,-RA,,0.18,WeatherDisplay:10.37,2013-01-31 07:21:00,
2013-01-31 02:26:00,55.6,55.6,29.17,WSW,239,12.7,12.7,100,0.09,-RA,,0.18,WeatherDisplay:10.37,2013-01-31 07:26:00,
2013-01-31 02:31:00,55.7,55.7,29.16,WNW,288,8.1,8.1,100,0.07,OVC,,0.18,WeatherDisplay:10.37,2013-01-31 07:31:00,
2013-01-31 02:36:00,55.8,55.8,29.16,SSW,196,26.5,26.5,100,0.06,RA,,0.19,WeatherDisplay:10.37,2013-01-31 07:36:00,
2013-01-31 02:41:00,55.7,55.7,29.16,South,186,18.4,18.4,100,0.05,RA,,0.19,WeatherDisplay:10.37,2013-01-31 07:41:00,
2013-01-31 02:46:00,55.6,55.6,29.15,West,270,12.7,12.7,100,0.05,RA,,0.20,WeatherDisplay:10.37,2013-01-31 07:46:00,
2013-01-31 02:51:00,55.9,55.9,29.13,SSW,192,15.0,15.0,100,0.06,RA,,0.21,WeatherDisplay:10.37,2013-01-31 07:51:00,
2013-01-31 02:56:00,56.3,56.3,29.12,SSW,208,28.8,28.8,100,0.06,RA,,0.22,WeatherDisplay:10.37,2013-01-31 07:56:00,
2013-01-31 03:01:00,56.4,56.4,29.11,South,178,27.6,27.6,100,0.07,RA,,0.23,WeatherDisplay:10.37,2013-01-31 08:01:00,
2013-01-31 03:06:00,56.4,56.4,29.10,SW,224,18.4,18.4,100,0.07,RA,,0.23,WeatherDisplay:10.37,2013-01-31 08:06:00,
2013-01-31 03:11:00,56.8,56.8,29.10,WSW,243,17.3,17.3,100,0.08,RA,,0.24,WeatherDisplay:10.37,2013-01-31 08:11:00,
2013-01-31 03:16:00,56.6,56.6,29.09,WSW,240,17.3,17.3,100,0.07,RA,,0.24,WeatherDisplay:10.37,2013-01-31 08:16:00,
2013-01-31 03:21:00,56.9,56.9,29.09,SSE,164,21.9,21.9,100,0.07,RA,,0.25,WeatherDisplay:10.37,2013-01-31 08:21:00,
2013-01-31 03:26:00,57.2,57.2,29.07,South,185,31.1,31.1,100,0.08,RA,,0.26,WeatherDisplay:10.37,2013-01-31 08:26:00,
2013-01-31 03:31:00,57.4,57.4,29.08,SW,232,31.1,31.1,100,0.08,RA,,0.26,WeatherDisplay:10.37,2013-01-31 08:31:00,
2013-01-31 03:36:00,57.7,57.7,29.07,SSE,165,29.9,29.9,100,0.08,OVC,,0.26,WeatherDisplay:10.37,2013-01-31 08:36:00,
2013-01-31 03:41:00,57.6,57.6,29.06,South,169,23.0,23.0,100,0.09,RA,,0.28,WeatherDisplay:10.37,2013-01-31 08:41:00,
2013-01-31 03:46:00,57.7,57.7,29.06,WSW,247,33.4,33.4,100,0.09,RA,,0.29,WeatherDisplay:10.37,2013-01-31 08:46:00,
2013-01-31 03:51:00,57.7,57.7,29.05,South,171,24.2,24.2,100,0.11,RA,,0.32,WeatherDisplay:10.37,2013-01-31 08:51:00,
2013-01-31 03:56:00,57.8,57.8,29.04,West,267,25.3,25.3,100,0.13,RA,,0.35,WeatherDisplay:10.37,2013-01-31 08:56:00,
2013-01-31 04:01:00,57.8,57.8,29.03,West,267,24.2,24.2,100,0.15, +RA,,0.37,WeatherDisplay:10.37,2013-01-31 09:01:00,
2013-01-31 04:06:00,57.8,57.8,29.03,South,171,27.6,27.6,100,0.16, +RA,,0.39,WeatherDisplay:10.37,2013-01-31 09:06:00,
2013-01-31 04:11:00,57.7,57.7,29.02,SW,226,29.9,29.9,100,0.16, +RA,,0.40,WeatherDisplay:10.37,2013-01-31 09:11:00,
2013-01-31 04:16:00,58.1,58.1,29.02,SW,215,25.3,25.3,100,0.18, +RA,,0.42,WeatherDisplay:10.37,2013-01-31 09:16:00,
2013-01-31 04:21:00,58.1,58.1,29.02,SW,222,35.7,35.7,100,0.18, +RA,,0.43,WeatherDisplay:10.37,2013-01-31 09:21:00,
2013-01-31 04:26:00,58.0,58.0,29.05,South,178,36.8,36.8,100,0.19, +RA,,0.45,WeatherDisplay:10.37,2013-01-31 09:26:00,
2013-01-31 04:31:00,58.1,58.1,29.05,SW,229,33.4,33.4,100,0.22, +RA,,0.48,WeatherDisplay:10.37,2013-01-31 09:31:00,
2013-01-31 04:36:00,57.7,57.7,29.05,SSW,206,29.9,29.9,100,0.23, +RA,,0.49,WeatherDisplay:10.37,2013-01-31 09:36:00,
2013-01-31 04:41:00,57.4,57.4,29.06,SW,222,27.6,27.6,100,0.22, +RA,,0.50,WeatherDisplay:10.37,2013-01-31 09:41:00,
2013-01-31 04:46:00,57.3,57.3,29.06,SW,217,28.8,28.8,100,0.21, +RA,,0.50,WeatherDisplay:10.37,2013-01-31 09:46:00,
2013-01-31 04:51:00,57.2,57.2,29.06,West,263,19.6,19.6,100,0.19,OVC,,0.51,WeatherDisplay:10.37,2013-01-31 09:51:00,
2013-01-31 04:56:00,57.2,57.2,29.07,WSW,258,23.0,23.0,100,0.16,RA,,0.51,WeatherDisplay:10.37,2013-01-31 09:56:00,
2013-01-31 05:01:00,56.9,56.9,29.07,WSW,257,17.3,17.3,100,0.16,RA,,0.53,WeatherDisplay:10.37,2013-01-31 10:01:00,
2013-01-31 05:06:00,57.0,57.0,29.07,West,264,18.4,18.4,100,0.14,RA,,0.54,WeatherDisplay:10.37,2013-01-31 10:06:00,
2013-01-31 05:11:00,56.9,56.9,29.05,West,264,15.0,15.0,100,0.14,RA,,0.55,WeatherDisplay:10.37,2013-01-31 10:11:00,
2013-01-31 05:16:00,56.7,56.7,29.06,WSW,246,25.3,25.3,100,0.13,-RA,,0.55,WeatherDisplay:10.37,2013-01-31 10:16:00,
2013-01-31 05:21:00,56.7,56.7,29.06,SW,224,18.4,18.4,100,0.13,-RA,,0.56,WeatherDisplay:10.37,2013-01-31 10:21:00,
2013-01-31 05:26:00,56.5,56.5,29.06,SW,219,12.7,12.7,100,0.12,-RA,,0.56,WeatherDisplay:10.37,2013-01-31 10:26:00,
2013-01-31 05:31:00,56.4,56.4,29.06,WSW,244,12.7,12.7,100,0.09,-RA,,0.57,WeatherDisplay:10.37,2013-01-31 10:31:00,
2013-01-31 05:36:00,56.3,56.3,29.05,SSW,200,12.7,12.7,100,0.09,-RA,,0.58,WeatherDisplay:10.37,2013-01-31 10:36:00,
2013-01-31 05:41:00,56.3,56.3,29.04,SW,226,12.7,12.7,100,0.08,-RA,,0.58,WeatherDisplay:10.37,2013-01-31 10:41:00,
2013-01-31 05:46:00,56.2,56.2,29.04,SSE,164,8.1,8.1,100,0.09,-RA,,0.59,WeatherDisplay:10.37,2013-01-31 10:46:00,
2013-01-31 05:51:00,56.0,56.0,29.03,South,189,12.7,12.7,100,0.08,-RA,,0.59,WeatherDisplay:10.37,2013-01-31 10:51:00,
2013-01-31 05:56:00,55.9,55.9,29.02,SSE,168,5.8,5.8,100,0.08,-RA,,0.59,WeatherDisplay:10.37,2013-01-31 10:56:00,
2013-01-31 06:01:00,55.8,55.8,29.02,South,182,10.4,10.4,100,0.07,-RA,,0.59,WeatherDisplay:10.37,2013-01-31 11:01:00,
2013-01-31 06:06:00,55.7,55.7,29.00,SW,216,6.9,6.9,100,0.06,-RA,,0.59,WeatherDisplay:10.37,2013-01-31 11:06:00,
2013-01-31 06:11:00,55.7,55.7,29.00,WSW,248,10.4,10.4,100,0.04,-RA,,0.59,WeatherDisplay:10.37,2013-01-31 11:11:00,
2013-01-31 06:16:00,55.4,55.4,29.00,West,268,10.4,10.4,100,0.04,-RA,,0.59,WeatherDisplay:10.37,2013-01-31 11:16:00,
2013-01-31 06:21:00,55.3,55.3,29.00,SW,215,12.7,12.7,100,0.03,-RA,,0.59,WeatherDisplay:10.37,2013-01-31 11:21:00,
2013-01-31 06:26:00,55.1,55.1,29.00,SSW,199,13.8,13.8,100,0.03,-RA,,0.59,WeatherDisplay:10.37,2013-01-31 11:26:00,
2013-01-31 06:31:00,55.0,55.0,29.01,South,182,13.8,13.8,100,0.02,-RA,,0.59,WeatherDisplay:10.37,2013-01-31 11:31:00,
2013-01-31 06:36:00,54.7,54.7,29.00,SW,219,13.8,13.8,100,0.01,-RA,,0.59,WeatherDisplay:10.37,2013-01-31 11:36:00,
2013-01-31 06:41:00,54.7,54.7,29.01,WSW,246,17.3,17.3,100,0.01,-RA,,0.59,WeatherDisplay:10.37,2013-01-31 11:41:00,
2013-01-31 06:46:00,54.9,54.9,29.00,SSW,209,10.4,10.4,100,0.00,-RA,,0.59,WeatherDisplay:10.37,2013-01-31 11:46:00,
2013-01-31 06:51:00,54.7,54.7,29.01,SW,222,6.9,6.9,100,0.00,-RA,,0.59,WeatherDisplay:10.37,2013-01-31 11:51:00,
2013-01-31 06:56:00,54.8,54.8,29.00,SSW,209,13.1,13.1,100,0.00,-RA,,0.59,WeatherDisplay:10.37,2013-01-31 11:56:00,
2013-01-31 07:01:00,55.0,55.0,29.01,West,267,19.6,19.6,100,0.00,-RA,,0.59,WeatherDisplay:10.37,2013-01-31 12:01:00,
2013-01-31 07:06:00,54.9,54.9,29.00,WSW,247,16.1,16.1,100,0.00,-RA,,0.59,WeatherDisplay:10.37,2013-01-31 12:06:00,
2013-01-31 07:11:00,54.9,54.9,29.00,WNW,292,8.1,8.1,100,0.01,-RA,,0.60,WeatherDisplay:10.37,2013-01-31 12:11:00,
2013-01-31 07:16:00,54.1,54.1,29.04,WSW,246,28.8,28.8,100,0.05,-RA,,0.64,WeatherDisplay:10.37,2013-01-31 12:16:00,
2013-01-31 07:21:00,52.3,52.1,29.04,WNW,302,32.2,32.2,99,0.05,-RA,,0.64,WeatherDisplay:10.37,2013-01-31 12:21:00,
2013-01-31 07:26:00,51.5,51.3,29.04,WSW,244,18.4,18.4,99,0.05,-RA,,0.64,WeatherDisplay:10.37,2013-01-31 12:26:00,
2013-01-31 07:31:00,50.6,50.4,29.04,West,264,24.2,24.2,99,0.05,-RA,,0.64,WeatherDisplay:10.37,2013-01-31 12:31:00,
2013-01-31 07:36:00,49.7,48.9,29.06,West,260,29.9,29.9,97,0.05,-RA,,0.64,WeatherDisplay:10.37,2013-01-31 12:36:00,
2013-01-31 07:41:00,49.3,48.2,29.06,WSW,243,28.8,28.8,96,0.05,-RA,,0.64,WeatherDisplay:10.37,2013-01-31 12:41:00,
2013-01-31 07:46:00,49.1,47.8,29.07,WNW,285,18.4,18.4,95,0.05,-RA,,0.64,WeatherDisplay:10.37,2013-01-31 12:46:00,
2013-01-31 07:51:00,49.0,47.7,29.08,West,264,25.3,25.3,95,0.05,OVC,,0.64,WeatherDisplay:10.37,2013-01-31 12:51:00,
2013-01-31 07:56:00,48.5,47.2,29.09,West,270,15.0,15.0,95,0.05,OVC,,0.65,WeatherDisplay:10.37,2013-01-31 12:56:00,
2013-01-31 08:01:00,48.1,47.1,29.10,WSW,250,16.1,16.1,96,0.07,RA,,0.66,WeatherDisplay:10.37,2013-01-31 13:01:00,
2013-01-31 08:06:00,48.0,47.2,29.11,SW,226,16.1,16.1,97,0.07,RA,,0.66,WeatherDisplay:10.37,2013-01-31 13:06:00,
2013-01-31 08:11:00,47.3,46.3,29.10,WNW,291,23.0,23.0,96,0.06,OVC,,0.66,WeatherDisplay:10.37,2013-01-31 13:11:00,
2013-01-31 08:16:00,46.8,44.4,29.10,WNW,296,28.8,28.8,91,0.02,-RA,,0.66,WeatherDisplay:10.37,2013-01-31 13:16:00,
2013-01-31 08:21:00,46.3,43.3,29.12,WNW,299,13.8,13.8,89,0.02,-RA,,0.66,WeatherDisplay:10.37,2013-01-31 13:21:00,
2013-01-31 08:26:00,46.1,42.5,29.12,NW,315,19.6,19.6,87,0.02,-RA,,0.66,WeatherDisplay:10.37,2013-01-31 13:26:00,
2013-01-31 08:31:00,46.1,42.2,29.12,NW,312,23.0,23.0,86,0.02,-RA,,0.66,WeatherDisplay:10.37,2013-01-31 13:31:00,
2013-01-31 08:36:00,46.2,41.0,29.13,West,274,17.3,17.3,82,0.02,-RA,,0.66,WeatherDisplay:10.37,2013-01-31 13:36:00,
2013-01-31 08:41:00,45.9,40.8,29.14,NW,313,13.8,13.8,82,0.02,-RA,,0.66,WeatherDisplay:10.37,2013-01-31 13:41:00,
2013-01-31 08:46:00,45.7,39.9,29.14,SW,236,18.4,18.4,80,0.02,-RA,,0.66,WeatherDisplay:10.37,2013-01-31 13:46:00,
2013-01-31 08:51:00,45.6,39.5,29.14,SW,236,28.8,28.8,79,0.02,-RA,,0.66,WeatherDisplay:10.37,2013-01-31 13:51:00,
2013-01-31 08:56:00,45.7,39.9,29.15,West,274,18.4,18.4,80,0.01,-RA,,0.66,WeatherDisplay:10.37,2013-01-31 13:56:00,
2013-01-31 09:01:00,45.7,39.6,29.15,NW,306,19.6,19.6,79,0.00,-RA,,0.66,WeatherDisplay:10.37,2013-01-31 14:01:00,
2013-01-31 09:06:00,45.9,39.8,29.16,WNW,294,11.5,13.1,79,0.00,-RA,,0.66,WeatherDisplay:10.37,2013-01-31 14:06:00,
2013-01-31 09:11:00,45.9,38.8,29.16,WNW,284,13.8,13.8,76,0.00,-RA,,0.66,WeatherDisplay:10.37,2013-01-31 14:11:00,
2013-01-31 09:16:00,45.9,37.8,29.17,WSW,258,17.3,17.3,73,0.00,OVC,,0.66,WeatherDisplay:10.37,2013-01-31 14:16:00,
2013-01-31 09:21:00,46.1,38.0,29.18,West,263,25.3,25.3,73,0.00,OVC,,0.66,WeatherDisplay:10.37,2013-01-31 14:21:00,
2013-01-31 09:26:00,45.3,36.1,29.18,NW,312,27.6,27.6,70,0.00,OVC,,0.66,WeatherDisplay:10.37,2013-01-31 14:26:00,
2013-01-31 09:31:00,44.4,35.3,29.19,West,281,23.0,23.0,70,0.00,OVC,,0.66,WeatherDisplay:10.37,2013-01-31 14:31:00,
2013-01-31 09:36:00,44.0,35.2,29.20,West,275,23.0,23.0,71,0.00,OVC,,0.66,WeatherDisplay:10.37,2013-01-31 14:36:00,
2013-01-31 09:41:00,44.0,34.5,29.20,WNW,294,19.6,19.6,69,0.00,OVC,,0.66,WeatherDisplay:10.37,2013-01-31 14:41:00,
2013-01-31 09:46:00,44.5,34.3,29.21,WSW,243,27.6,27.6,67,0.00,OVC,,0.66,WeatherDisplay:10.37,2013-01-31 14:46:00,
2013-01-31 09:51:00,44.3,33.3,29.21,WSW,250,25.3,25.3,65,0.00,OVC,,0.66,WeatherDisplay:10.37,2013-01-31 14:51:00,
2013-01-31 09:56:00,44.3,32.5,29.22,WSW,256,26.5,26.5,63,0.00,OVC,,0.66,WeatherDisplay:10.37,2013-01-31 14:56:00,
2013-01-31 10:02:00,44.6,33.2,29.22,NW,313,16.1,16.1,64,0.00,BKN,,0.66,WeatherDisplay:10.37,2013-01-31 15:02:00,
2013-01-31 10:07:00,44.8,31.8,29.23,NNW,328,21.9,21.9,60,0.00,BKN,,0.66,WeatherDisplay:10.37,2013-01-31 15:07:00,
2013-01-31 10:13:00,44.9,31.5,29.24,West,264,21.9,21.9,59,0.00,BKN,,0.66,WeatherDisplay:10.37,2013-01-31 15:13:00,
2013-01-31 10:18:00,45.0,30.7,29.24,WSW,258,23.0,23.0,57,0.00,BKN,,0.66,WeatherDisplay:10.37,2013-01-31 15:18:00,
2013-01-31 10:23:00,44.7,29.1,29.24,WNW,282,34.5,34.5,54,0.00,BKN,,0.66,WeatherDisplay:10.37,2013-01-31 15:23:00,
2013-01-31 10:28:00,44.9,29.7,29.24,West,274,23.0,23.0,55,0.00,BKN,,0.66,WeatherDisplay:10.37,2013-01-31 15:28:00,
2013-01-31 10:33:00,44.9,30.6,29.25,WSW,254,17.3,17.3,57,0.00,BKN,,0.66,WeatherDisplay:10.37,2013-01-31 15:33:00,
2013-01-31 10:38:00,44.9,31.0,29.25,WSW,248,12.7,12.7,58,0.00,BKN,,0.66,WeatherDisplay:10.37,2013-01-31 15:38:00,
2013-01-31 10:43:00,44.7,30.9,29.25,West,280,17.3,17.3,58,0.00,BKN,,0.66,WeatherDisplay:10.37,2013-01-31 15:43:00,
2013-01-31 10:48:00,43.9,30.1,29.25,West,277,28.8,28.8,58,0.00,BKN,,0.66,WeatherDisplay:10.37,2013-01-31 15:48:00,
2013-01-31 10:53:00,43.7,31.2,29.26,WNW,291,17.3,17.3,61,0.00,BKN,,0.66,WeatherDisplay:10.37,2013-01-31 15:53:00,
2013-01-31 10:58:00,43.8,30.8,29.26,West,271,20.7,20.7,60,0.00,BKN,,0.66,WeatherDisplay:10.37,2013-01-31 15:58:00,
2013-01-31 11:03:00,43.8,29.1,29.26,WNW,282,31.1,31.1,56,0.00,OVC,,0.66,WeatherDisplay:10.37,2013-01-31 16:03:00,
2013-01-31 11:08:00,43.0,28.4,29.27,WNW,287,31.1,31.1,56,0.00,OVC,,0.66,WeatherDisplay:10.37,2013-01-31 16:08:00,
2013-01-31 11:13:00,42.7,29.8,29.27,WNW,282,15.0,15.0,60,0.00,OVC,,0.66,WeatherDisplay:10.37,2013-01-31 16:13:00,
2013-01-31 11:18:00,42.3,29.8,29.27,WNW,295,16.1,16.1,61,0.00,OVC,,0.66,WeatherDisplay:10.37,2013-01-31 16:18:00,
2013-01-31 11:23:00,41.7,29.3,29.28,NW,306,12.7,12.7,61,0.00,OVC,,0.66,WeatherDisplay:10.37,2013-01-31 16:23:00,
2013-01-31 11:28:00,41.7,29.7,29.28,NW,311,17.3,17.3,62,0.00,OVC,,0.66,WeatherDisplay:10.37,2013-01-31 16:28:00,
2013-01-31 11:33:00,41.5,28.7,29.28,NW,308,21.9,21.9,60,0.00,OVC,,0.66,WeatherDisplay:10.37,2013-01-31 16:33:00,
2013-01-31 11:38:00,41.4,28.6,29.28,NW,326,25.3,25.3,60,0.00,OVC,,0.66,WeatherDisplay:10.37,2013-01-31 16:38:00,
2013-01-31 11:43:00,41.6,29.6,29.29,NW,304,13.8,13.8,62,0.00,OVC,,0.66,WeatherDisplay:10.37,2013-01-31 16:43:00,
2013-01-31 11:48:00,41.7,28.9,29.29,WNW,299,23.4,23.4,60,0.00,OVC,,0.66,WeatherDisplay:10.37,2013-01-31 16:48:00,
2013-01-31 11:53:00,41.3,27.2,29.29,West,260,21.9,21.9,57,0.00,OVC,,0.66,WeatherDisplay:10.37,2013-01-31 16:53:00,
2013-01-31 11:58:00,41.5,27.4,29.29,West,275,12.7,12.7,57,0.00,OVC,,0.66,WeatherDisplay:10.37,2013-01-31 16:58:00,
2013-01-31 12:03:00,41.3,25.0,29.30,WNW,289,20.7,20.7,52,0.00,OVC,,0.66,WeatherDisplay:10.37,2013-01-31 17:03:00,
2013-01-31 12:08:00,41.2,25.8,29.31,WNW,296,13.8,13.8,54,0.00,OVC,,0.66,WeatherDisplay:10.37,2013-01-31 17:08:00,
2013-01-31 12:13:00,41.2,25.8,29.31,South,176,16.1,16.1,54,0.00,OVC,,0.66,WeatherDisplay:10.37,2013-01-31 17:13:00,
2013-01-31 12:18:00,41.1,25.3,29.31,WSW,251,21.9,21.9,53,0.00,BKN,,0.66,WeatherDisplay:10.37,2013-01-31 17:18:00,
2013-01-31 12:23:00,41.3,25.0,29.31,West,268,25.3,25.3,52,0.00,BKN,,0.66,WeatherDisplay:10.37,2013-01-31 17:23:00,
2013-01-31 12:28:00,41.3,25.0,29.31,NW,312,20.7,20.7,52,0.00,BKN,,0.66,WeatherDisplay:10.37,2013-01-31 17:28:00,
2013-01-31 12:33:00,41.1,24.4,29.31,West,260,20.7,20.7,51,0.00,BKN,,0.66,WeatherDisplay:10.37,2013-01-31 17:33:00,
2013-01-31 12:38:00,41.3,25.0,29.31,WNW,284,16.1,16.1,52,0.00,BKN,,0.66,WeatherDisplay:10.37,2013-01-31 17:38:00,
2013-01-31 12:43:00,41.6,25.8,29.32,WNW,291,24.2,24.2,53,0.00,BKN,,0.66,WeatherDisplay:10.37,2013-01-31 17:43:00,
2013-01-31 12:48:00,41.8,25.5,29.32,WNW,285,24.2,24.2,52,0.00,BKN,,0.66,WeatherDisplay:10.37,2013-01-31 17:48:00,
2013-01-31 12:53:00,42.0,25.7,29.32,WSW,241,24.2,24.2,52,0.00,BKN,,0.66,WeatherDisplay:10.37,2013-01-31 17:53:00,
2013-01-31 12:58:00,41.1,23.4,29.33,WNW,294,25.3,25.3,49,0.00,BKN,,0.66,WeatherDisplay:10.37,2013-01-31 17:58:00,
2013-01-31 13:03:00,40.7,24.0,29.32,West,267,18.4,18.4,51,0.00,BKN,,0.66,WeatherDisplay:10.37,2013-01-31 18:03:00,
2013-01-31 13:08:00,41.1,24.4,29.32,WNW,282,20.7,20.7,51,0.00,BKN,,0.66,WeatherDisplay:10.37,2013-01-31 18:08:00,
2013-01-31 13:13:00,41.1,23.9,29.33,NW,315,25.3,25.3,50,0.00,BKN,,0.66,WeatherDisplay:10.37,2013-01-31 18:13:00,
2013-01-31 13:18:00,41.0,24.3,29.32,West,263,23.0,23.0,51,0.00,BKN,,0.66,WeatherDisplay:10.37,2013-01-31 18:18:00,
2013-01-31 13:23:00,40.7,23.5,29.32,WNW,296,18.4,18.4,50,0.00,BKN,,0.66,WeatherDisplay:10.37,2013-01-31 18:23:00,
2013-01-31 13:29:00,41.1,23.4,29.33,WNW,295,23.0,23.0,49,0.00,BKN,,0.66,WeatherDisplay:10.37,2013-01-31 18:29:00,
2013-01-31 13:34:00,41.5,22.3,29.33,SW,229,26.5,26.5,46,0.00,BKN,,0.66,WeatherDisplay:10.37,2013-01-31 18:34:00,
2013-01-31 13:39:00,41.5,23.3,29.33,West,272,16.1,16.1,48,0.00,BKN,,0.66,WeatherDisplay:10.37,2013-01-31 18:39:00,
2013-01-31 13:44:00,41.9,23.2,29.33,West,261,18.4,18.4,47,0.00,BKN,,0.66,WeatherDisplay:10.37,2013-01-31 18:44:00,
2013-01-31 13:49:00,42.3,24.5,29.33,WNW,294,21.9,21.9,49,0.00,BKN,,0.66,WeatherDisplay:10.37,2013-01-31 18:49:00,
2013-01-31 13:54:00,42.4,24.1,29.33,WNW,299,17.3,17.3,48,0.00,BKN,,0.66,WeatherDisplay:10.37,2013-01-31 18:54:00,
2013-01-31 13:59:00,42.8,22.4,29.33,West,267,28.8,28.8,44,0.00,BKN,,0.66,WeatherDisplay:10.37,2013-01-31 18:59:00,
2013-01-31 14:04:00,42.6,22.2,29.34,West,278,19.6,19.6,44,0.00,BKN,,0.66,WeatherDisplay:10.37,2013-01-31 19:04:00,
2013-01-31 14:09:00,42.5,22.1,29.35,West,278,20.7,20.7,44,0.00,BKN,,0.66,WeatherDisplay:10.37,2013-01-31 19:09:00,
2013-01-31 14:14:00,42.2,22.9,29.35,NW,312,20.3,20.3,46,0.00,BKN,,0.66,WeatherDisplay:10.37,2013-01-31 19:14:00,
2013-01-31 14:19:00,41.4,21.7,29.35,WSW,251,19.1,19.1,45,0.00,BKN,,0.66,WeatherDisplay:10.37,2013-01-31 19:19:00,
2013-01-31 14:24:00,40.9,21.7,29.36,NW,305,11.5,11.5,46,0.00,BKN,,0.66,WeatherDisplay:10.37,2013-01-31 19:24:00,
2013-01-31 14:29:00,41.0,21.3,29.36,NW,316,23.0,23.0,45,0.00,BKN,,0.66,WeatherDisplay:10.37,2013-01-31 19:29:00,
2013-01-31 14:34:00,41.6,22.4,29.36,North,7,16.1,16.1,46,0.00,BKN,,0.66,WeatherDisplay:10.37,2013-01-31 19:34:00,
2013-01-31 14:39:00,41.6,21.8,29.37,NNW,343,11.5,11.5,45,0.00,BKN,,0.66,WeatherDisplay:10.37,2013-01-31 19:39:00,
2013-01-31 14:44:00,41.3,21.0,29.37,WNW,288,17.3,17.3,44,0.00,BKN,,0.66,WeatherDisplay:10.37,2013-01-31 19:44:00,
2013-01-31 14:49:00,41.2,21.5,29.38,NNW,347,15.0,15.0,45,0.00,BKN,,0.66,WeatherDisplay:10.37,2013-01-31 19:49:00,
2013-01-31 14:54:00,40.9,21.7,29.38,West,267,12.7,12.7,46,0.00,BKN,,0.66,WeatherDisplay:10.37,2013-01-31 19:54:00,
2013-01-31 14:59:00,41.0,21.8,29.38,WNW,282,17.3,17.3,46,0.00,BKN,,0.66,WeatherDisplay:10.37,2013-01-31 19:59:00,
2013-01-31 15:04:00,41.0,21.8,29.39,West,272,12.7,12.7,46,0.00,BKN,,0.66,WeatherDisplay:10.37,2013-01-31 20:04:00,
2013-01-31 15:09:00,40.7,21.0,29.39,WNW,284,23.0,23.0,45,0.00,BKN,,0.66,WeatherDisplay:10.37,2013-01-31 20:09:00,
2013-01-31 15:14:00,40.6,21.4,29.39,WNW,288,15.0,15.0,46,0.00,BKN,,0.66,WeatherDisplay:10.37,2013-01-31 20:14:00,
2013-01-31 15:20:00,40.9,21.2,29.40,West,264,11.5,11.5,45,0.00,BKN,,0.66,WeatherDisplay:10.37,2013-01-31 20:20:00,
2013-01-31 15:25:00,41.1,20.9,29.39,NNW,336,27.6,27.6,44,0.00,BKN,,0.66,WeatherDisplay:10.37,2013-01-31 20:25:00,
2013-01-31 15:30:00,40.8,20.0,29.39,WNW,295,15.0,16.0,43,0.00,BKN,,0.66,WeatherDisplay:10.37,2013-01-31 20:30:00,
2013-01-31 15:35:00,40.8,20.0,29.40,WNW,294,25.3,25.3,43,0.00,BKN,,0.66,WeatherDisplay:10.37,2013-01-31 20:35:00,
2013-01-31 15:40:00,40.7,20.5,29.40,West,263,15.0,15.0,44,0.00,BKN,,0.66,WeatherDisplay:10.37,2013-01-31 20:40:00,
2013-01-31 15:45:00,40.6,18.7,29.40,SW,222,20.7,20.7,41,0.00,BKN,,0.66,WeatherDisplay:10.37,2013-01-31 20:45:00,
2013-01-31 15:50:00,39.9,17.5,29.41,WNW,289,34.5,34.5,40,0.00,BKN,,0.66,WeatherDisplay:10.37,2013-01-31 20:50:00,
2013-01-31 15:55:00,39.2,17.5,29.41,NW,313,18.4,18.4,41,0.00,BKN,,0.66,WeatherDisplay:10.37,2013-01-31 20:55:00,
2013-01-31 16:00:00,39.0,17.9,29.42,West,281,21.9,21.9,42,0.00,BKN,,0.66,WeatherDisplay:10.37,2013-01-31 21:00:00,
2013-01-31 16:05:00,38.7,17.6,29.42,NW,320,18.4,18.4,42,0.00,BKN,,0.66,WeatherDisplay:10.37,2013-01-31 21:05:00,
2013-01-31 16:10:00,38.8,18.2,29.43,NW,313,17.3,17.3,43,0.00,BKN,,0.66,WeatherDisplay:10.37,2013-01-31 21:10:00,
2013-01-31 16:15:00,38.7,17.6,29.44,NW,316,24.2,24.2,42,0.00,BKN,,0.66,WeatherDisplay:10.37,2013-01-31 21:15:00,
2013-01-31 16:20:00,38.4,18.4,29.44,West,261,29.9,29.9,44,0.00,BKN,,0.66,WeatherDisplay:10.37,2013-01-31 21:20:00,
2013-01-31 16:25:00,38.1,18.6,29.44,West,274,28.8,28.8,45,0.00,BKN,,0.66,WeatherDisplay:10.37,2013-01-31 21:25:00,
2013-01-31 16:30:00,38.0,19.1,29.44,West,274,32.2,32.2,46,0.00,BKN,,0.66,WeatherDisplay:10.37,2013-01-31 21:30:00,
2013-01-31 16:35:00,37.6,20.2,29.45,West,277,26.5,26.5,49,0.00,BKN,,0.66,WeatherDisplay:10.37,2013-01-31 21:35:00,
2013-01-31 16:40:00,37.5,20.6,29.46,West,280,20.7,20.7,50,0.00,BKN,,0.66,WeatherDisplay:10.37,2013-01-31 21:40:00,
2013-01-31 16:45:00,37.0,20.1,29.46,SW,227,24.2,24.2,50,0.00,BKN,,0.66,WeatherDisplay:10.37,2013-01-31 21:45:00,
2013-01-31 16:50:00,36.7,20.3,29.46,WSW,247,28.8,28.8,51,0.00,BKN,,0.66,WeatherDisplay:10.37,2013-01-31 21:50:00,
2013-01-31 16:55:00,36.4,20.5,29.47,West,271,20.7,20.7,52,0.00,BKN,,0.66,WeatherDisplay:10.37,2013-01-31 21:55:00,
2013-01-31 17:00:00,35.9,20.5,29.47,WSW,256,28.8,28.8,53,0.00,BKN,,0.66,WeatherDisplay:10.37,2013-01-31 22:00:00,
2013-01-31 17:05:00,35.5,20.5,29.48,West,265,20.7,20.7,54,0.00,OVC,,0.66,WeatherDisplay:10.37,2013-01-31 22:05:00,
2013-01-31 17:10:00,35.5,21.0,29.48,WNW,292,21.9,21.9,55,0.00,OVC,,0.66,WeatherDisplay:10.37,2013-01-31 22:10:00,
2013-01-31 17:15:00,35.2,20.7,29.49,WNW,299,28.8,28.8,55,0.00,OVC,,0.66,WeatherDisplay:10.37,2013-01-31 22:15:00,
2013-01-31 17:20:00,34.9,20.8,29.50,WNW,294,23.0,23.0,56,0.00,OVC,,0.66,WeatherDisplay:10.37,2013-01-31 22:20:00,
2013-01-31 17:25:00,34.6,21.8,29.50,West,271,26.5,26.5,59,0.00,OVC,,0.66,WeatherDisplay:10.37,2013-01-31 22:25:00,
2013-01-31 17:30:00,34.5,22.1,29.50,West,277,24.2,24.2,60,0.00,OVC,,0.66,WeatherDisplay:10.37,2013-01-31 22:30:00,
2013-01-31 17:35:00,34.4,22.0,29.51,WNW,285,15.0,15.0,60,0.00,OVC,,0.66,WeatherDisplay:10.37,2013-01-31 22:35:00,
2013-01-31 17:40:00,34.1,22.1,29.51,SSW,210,12.7,14.2,61,0.00,OVC,,0.66,WeatherDisplay:10.37,2013-01-31 22:40:00,
2013-01-31 17:45:00,34.1,22.1,29.51,SW,226,16.1,16.1,61,0.00,OVC,,0.66,WeatherDisplay:10.37,2013-01-31 22:45:00,
2013-01-31 17:50:00,33.9,22.3,29.52,West,278,19.6,19.6,62,0.00,OVC,,0.66,WeatherDisplay:10.37,2013-01-31 22:50:00,
2013-01-31 17:55:00,33.6,22.0,29.53,West,263,29.9,29.9,62,0.00,OVC,,0.66,WeatherDisplay:10.37,2013-01-31 22:55:00,
2013-01-31 18:00:00,33.7,22.5,29.54,West,268,19.6,19.6,63,0.00,OVC,,0.66,WeatherDisplay:10.37,2013-01-31 23:00:00,
2013-01-31 18:05:00,33.6,23.1,29.54,WNW,292,18.4,18.4,65,0.00,BKN,,0.66,WeatherDisplay:10.37,2013-01-31 23:05:00,
2013-01-31 18:10:00,33.1,23.0,29.55,WNW,285,18.4,18.4,66,0.00,BKN,,0.66,WeatherDisplay:10.37,2013-01-31 23:10:00,
2013-01-31 18:15:00,33.1,23.0,29.55,West,270,13.8,13.8,66,0.00,BKN,,0.66,WeatherDisplay:10.37,2013-01-31 23:15:00,
2013-01-31 18:20:00,33.0,22.5,29.55,SW,236,19.6,19.6,65,0.00,BKN,,0.66,WeatherDisplay:10.37,2013-01-31 23:20:00,
2013-01-31 18:25:00,32.9,22.8,29.56,West,281,20.7,20.7,66,0.00,BKN,,0.66,WeatherDisplay:10.37,2013-01-31 23:25:00,
2013-01-31 18:30:00,33.0,22.5,29.56,NW,318,13.8,13.8,65,0.00,BKN,,0.66,WeatherDisplay:10.37,2013-01-31 23:30:00,
2013-01-31 18:35:00,32.7,21.5,29.56,West,274,17.3,17.3,63,0.00,BKN,,0.66,WeatherDisplay:10.37,2013-01-31 23:35:00,
2013-01-31 18:40:00,32.6,21.4,29.57,West,272,23.0,23.0,63,0.00,BKN,,0.66,WeatherDisplay:10.37,2013-01-31 23:40:00,
2013-01-31 18:45:00,32.3,21.1,29.57,West,261,17.3,17.3,63,0.00,BKN,,0.66,WeatherDisplay:10.37,2013-01-31 23:45:00,
2013-01-31 18:50:00,32.4,21.2,29.58,West,268,18.2,18.2,63,0.00,BKN,,0.66,WeatherDisplay:10.37,2013-01-31 23:50:00,
2013-01-31 18:55:00,32.0,22.0,29.58,WSW,254,13.7,13.7,66,0.00,BKN,,0.66,WeatherDisplay:10.37,2013-01-31 23:55:00,
2013-01-31 19:00:00,31.7,21.3,29.58,WSW,257,20.7,20.7,65,0.00,BKN,,0.66,WeatherDisplay:10.37,2013-02-01 00:00:00,
2013-01-31 19:05:00,31.7,21.3,29.59,NW,326,15.0,15.0,65,0.00,BKN,,0.66,WeatherDisplay:10.37,2013-02-01 00:05:00,
2013-01-31 19:10:00,31.6,21.6,29.59,WSW,239,27.6,27.6,66,0.00,BKN,,0.66,WeatherDisplay:10.37,2013-02-01 00:10:00,
2013-01-31 19:15:00,31.4,22.1,29.59,NW,306,20.7,20.7,68,0.00,BKN,,0.66,WeatherDisplay:10.37,2013-02-01 00:15:00,
2013-01-31 19:20:00,31.2,21.9,29.59,WNW,284,15.0,15.0,68,0.00,BKN,,0.66,WeatherDisplay:10.37,2013-02-01 00:20:00,
2013-01-31 19:25:00,31.1,21.5,29.60,NW,305,15.0,15.0,67,0.00,BKN,,0.66,WeatherDisplay:10.37,2013-02-01 00:25:00,
2013-01-31 19:30:00,31.2,21.5,29.60,West,268,15.0,15.0,67,0.00,BKN,,0.66,WeatherDisplay:10.37,2013-02-01 00:30:00,
2013-01-31 19:35:00,31.1,21.5,29.60,WNW,289,17.3,17.3,67,0.00,BKN,,0.66,WeatherDisplay:10.37,2013-02-01 00:35:00,
2013-01-31 19:40:00,31.1,21.5,29.60,WNW,301,15.0,15.0,67,0.00,BKN,,0.66,WeatherDisplay:10.37,2013-02-01 00:40:00,
2013-01-31 19:45:00,31.2,21.2,29.60,WNW,291,16.1,16.1,66,0.00,BKN,,0.66,WeatherDisplay:10.37,2013-02-01 00:45:00,
2013-01-31 19:50:00,31.0,20.3,29.61,West,264,16.1,16.1,64,0.00,BKN,,0.66,WeatherDisplay:10.37,2013-02-01 00:50:00,
2013-01-31 19:55:00,30.7,18.9,29.61,WSW,239,19.6,19.6,61,0.00,BKN,,0.66,WeatherDisplay:10.37,2013-02-01 00:55:00,
2013-01-31 20:00:00,30.6,18.4,29.60,WSW,253,18.4,18.4,60,0.00,BKN,,0.66,WeatherDisplay:10.37,2013-02-01 01:00:00,
2013-01-31 20:05:00,30.8,17.8,29.61,West,274,16.1,16.1,58,0.00,BKN,,0.66,WeatherDisplay:10.37,2013-02-01 01:05:00,
2013-01-31 20:10:00,30.7,17.3,29.61,NW,326,20.7,20.7,57,0.00,BKN,,0.66,WeatherDisplay:10.37,2013-02-01 01:10:00,
2013-01-31 20:15:00,30.5,16.7,29.61,SW,217,20.7,20.7,56,0.00,BKN,,0.66,WeatherDisplay:10.37,2013-02-01 01:15:00,
2013-01-31 20:20:00,30.5,16.7,29.61,NW,308,20.7,20.7,56,0.00,BKN,,0.66,WeatherDisplay:10.37,2013-02-01 01:20:00,
2013-01-31 20:25:00,30.4,15.8,29.61,WNW,292,25.3,25.3,54,0.00,BKN,,0.66,WeatherDisplay:10.37,2013-02-01 01:25:00,
2013-01-31 20:30:00,30.5,16.3,29.62,NW,308,17.3,17.3,55,0.00,BKN,,0.66,WeatherDisplay:10.37,2013-02-01 01:30:00,
2013-01-31 20:35:00,30.4,15.3,29.62,WNW,295,27.6,27.6,53,0.00,BKN,,0.66,WeatherDisplay:10.37,2013-02-01 01:35:00,
2013-01-31 20:40:00,30.4,15.3,29.62,WSW,257,13.8,13.8,53,0.00,BKN,,0.66,WeatherDisplay:10.37,2013-02-01 01:40:00,
2013-01-31 20:45:00,30.4,15.3,29.62,WSW,257,20.7,20.7,53,0.00,BKN,,0.66,WeatherDisplay:10.37,2013-02-01 01:45:00,
2013-01-31 20:50:00,30.4,15.8,29.62,WSW,239,17.3,17.3,54,0.00,BKN,,0.66,WeatherDisplay:10.37,2013-02-01 01:50:00,
2013-01-31 20:55:00,30.3,15.2,29.62,West,277,16.1,16.1,53,0.00,BKN,,0.66,WeatherDisplay:10.37,2013-02-01 01:55:00,
2013-01-31 21:01:00,30.2,15.6,29.63,West,263,11.5,11.5,54,0.00,BKN,,0.66,WeatherDisplay:10.37,2013-02-01 02:01:00,
2013-01-31 21:06:00,30.1,15.9,29.63,WNW,282,13.8,13.8,55,0.00,SCT,,0.66,WeatherDisplay:10.37,2013-02-01 02:06:00,
2013-01-31 21:12:00,30.0,15.4,29.63,WNW,294,18.4,18.4,54,0.00,SCT,,0.66,WeatherDisplay:10.37,2013-02-01 02:12:00,
2013-01-31 21:17:00,29.9,15.7,29.63,SW,232,13.8,13.8,55,0.00,SCT,,0.66,WeatherDisplay:10.37,2013-02-01 02:17:00,
2013-01-31 21:22:00,29.9,15.7,29.63,West,260,19.6,19.6,55,0.00,SCT,,0.66,WeatherDisplay:10.37,2013-02-01 02:22:00,
2013-01-31 21:27:00,29.8,15.2,29.63,West,267,27.6,27.6,54,0.00,SCT,,0.66,WeatherDisplay:10.37,2013-02-01 02:27:00,
2013-01-31 21:33:00,29.8,16.0,29.63,WSW,256,15.0,15.0,56,0.00,SCT,,0.66,WeatherDisplay:10.37,2013-02-01 02:33:00,
2013-01-31 21:38:00,29.8,16.0,29.63,NW,322,16.1,16.1,56,0.00,SCT,,0.66,WeatherDisplay:10.37,2013-02-01 02:38:00,
2013-01-31 21:43:00,29.6,15.8,29.64,West,265,23.0,23.0,56,0.00,SCT,,0.66,WeatherDisplay:10.37,2013-02-01 02:43:00,
2013-01-31 21:48:00,29.8,16.0,29.64,NW,304,19.6,19.6,56,0.00,SCT,,0.66,WeatherDisplay:10.37,2013-02-01 02:48:00,
2013-01-31 21:53:00,29.5,16.2,29.64,WNW,292,11.5,11.5,57,0.00,SCT,,0.66,WeatherDisplay:10.37,2013-02-01 02:53:00,
2013-01-31 21:58:00,29.5,16.6,29.65,WSW,258,17.3,17.3,58,0.00,SCT,,0.66,WeatherDisplay:10.37,2013-02-01 02:58:00,
2013-01-31 22:03:00,29.4,16.9,29.64,West,281,19.6,19.6,59,0.00,FEW,,0.66,WeatherDisplay:10.37,2013-02-01 03:03:00,
2013-01-31 22:08:00,29.3,16.8,29.64,WNW,285,19.6,19.6,59,0.00,FEW,,0.66,WeatherDisplay:10.37,2013-02-01 03:08:00,
2013-01-31 22:13:00,29.4,17.6,29.64,NW,305,18.4,18.4,61,0.00,FEW,,0.66,WeatherDisplay:10.37,2013-02-01 03:13:00,
2013-01-31 22:18:00,29.4,17.6,29.65,WNW,296,13.8,13.8,61,0.00,FEW,,0.66,WeatherDisplay:10.37,2013-02-01 03:18:00,
2013-01-31 22:23:00,29.3,17.5,29.65,West,271,21.9,21.9,61,0.00,FEW,,0.66,WeatherDisplay:10.37,2013-02-01 03:23:00,
2013-01-31 22:28:00,29.4,17.6,29.65,WNW,284,19.6,19.6,61,0.00,FEW,,0.66,WeatherDisplay:10.37,2013-02-01 03:28:00,
2013-01-31 22:33:00,29.5,17.7,29.65,West,280,19.6,19.6,61,0.00,FEW,,0.66,WeatherDisplay:10.37,2013-02-01 03:33:00,
2013-01-31 22:38:00,29.3,18.3,29.65,West,265,25.3,25.3,63,0.00,FEW,,0.66,WeatherDisplay:10.37,2013-02-01 03:38:00,
2013-01-31 22:43:00,29.1,18.1,29.65,WSW,251,18.4,18.4,63,0.00,FEW,,0.66,WeatherDisplay:10.37,2013-02-01 03:43:00,
2013-01-31 22:48:00,29.1,18.5,29.65,WSW,248,18.4,18.4,64,0.00,FEW,,0.66,WeatherDisplay:10.37,2013-02-01 03:48:00,
2013-01-31 22:53:00,28.8,18.9,29.65,NW,313,19.6,19.6,66,0.00,FEW,,0.66,WeatherDisplay:10.37,2013-02-01 03:53:00,
2013-01-31 22:58:00,28.3,19.1,29.65,West,260,29.9,29.9,68,0.00,FEW,,0.66,WeatherDisplay:10.37,2013-02-01 03:58:00,
2013-01-31 23:04:00,28.5,18.6,29.65,WNW,291,11.5,11.5,66,0.00,FEW,,0.66,WeatherDisplay:10.37,2013-02-01 04:04:00,
2013-01-31 23:09:00,28.3,17.3,29.66,WSW,258,15.0,15.0,63,0.00,FEW,,0.66,WeatherDisplay:10.37,2013-02-01 04:09:00,
2013-01-31 23:14:00,28.4,16.7,29.66,NW,320,13.8,13.8,61,0.00,FEW,,0.66,WeatherDisplay:10.37,2013-02-01 04:14:00,
2013-01-31 23:19:00,28.2,16.1,29.66,West,271,23.0,23.0,60,0.00,FEW,,0.66,WeatherDisplay:10.37,2013-02-01 04:19:00,
2013-01-31 23:24:00,28.3,16.2,29.67,West,277,11.5,11.5,60,0.00,FEW,,0.66,WeatherDisplay:10.37,2013-02-01 04:24:00,
2013-01-31 23:29:00,28.1,16.0,29.67,West,272,20.7,20.7,60,0.00,FEW,,0.66,WeatherDisplay:10.37,2013-02-01 04:29:00,
2013-01-31 23:34:00,27.7,14.9,29.67,NW,320,26.5,26.5,58,0.00,FEW,,0.66,WeatherDisplay:10.37,2013-02-01 04:34:00,
2013-01-31 23:39:00,27.9,15.1,29.67,WNW,298,15.0,15.0,58,0.00,FEW,,0.66,WeatherDisplay:10.37,2013-02-01 04:39:00,
2013-01-31 23:44:00,27.9,14.3,29.67,West,268,17.3,17.3,56,0.00,FEW,,0.66,WeatherDisplay:10.37,2013-02-01 04:44:00,
2013-01-31 23:49:00,27.7,14.1,29.68,WNW,301,20.7,20.7,56,0.00,FEW,,0.66,WeatherDisplay:10.37,2013-02-01 04:49:00,
2013-01-31 23:54:00,27.5,13.0,29.68,West,281,26.5,26.5,54,0.00,FEW,,0.66,WeatherDisplay:10.37,2013-02-01 04:54:00,
2013-01-31 23:59:00,27.5,13.5,29.68,West,261,13.8,13.8,55,0.00,FEW,,0.66,WeatherDisplay:10.37,2013-02-01 04:59:00,